Time;durP1;ratioP1;P1;durP2;ratioP2;P2;SDS_P1;SDS_P2;PMS_P1;PMS_P2;Temp;Humidity;BMP_temperature;BMP_pressure;BME280_temperature;BME280_humidity;BME280_pressure;Samples;Min_cycle;Max_cycle;Signal;HPM_P1;HPM_P2
2021/03/13 00:00:49;;;;;;;9.07;7.70;;;;;;;;;;4999537;28;20463;-85
2021/03/13 00:03:15;;;;;;;12.10;8.43;;;;;;;;;;4999885;28;20034;-85
2021/03/13 00:05:42;;;;;;;12.57;8.70;;;;;;;;;;5000042;28;20031;-85
2021/03/13 00:08:09;;;;;;;9.90;7.72;;;;;;;;;;4999759;28;20030;-85
2021/03/13 00:10:36;;;;;;;12.63;7.30;;;;;;;;;;4998699;28;20015;-85
2021/03/13 00:13:03;;;;;;;8.52;5.90;;;;;;;;;;4998543;28;20069;-85
2021/03/13 00:15:29;;;;;;;7.72;6.03;;;;;;;;;;4998449;28;20019;-85
2021/03/13 00:17:56;;;;;;;11.40;7.50;;;;;;;;;;4999626;28;20161;-86
2021/03/13 00:20:24;;;;;;;9.88;6.75;;;;;;;;;;4999509;28;20026;-86
2021/03/13 00:22:50;;;;;;;8.48;6.85;;;;;;;;;;4999490;28;20036;-84
2021/03/13 00:25:16;;;;;;;9.25;6.15;;;;;;;;;;4999221;28;20034;-84
2021/03/13 00:27:46;;;;;;;8.88;6.20;;;;;;;;;;4997768;28;20045;-84
2021/03/13 00:30:12;;;;;;;8.23;6.10;;;;;;;;;;4999348;28;20353;-84
2021/03/13 00:32:38;;;;;;;7.35;5.68;;;;;;;;;;4999294;28;20117;-84
2021/03/13 00:35:24;;;;;;;9.63;6.03;;;;;;;;;;4998997;28;20057;-85
2021/03/13 00:37:50;;;;;;;9.45;5.60;;;;;;;;;;4997941;28;20322;-86
2021/03/13 00:40:17;;;;;;;7.32;5.60;;;;;;;;;;4999225;28;20102;-86
2021/03/13 00:42:44;;;;;;;8.85;5.05;;;;;;;;;;4999032;28;20069;-86
2021/03/13 00:45:11;;;;;;;7.65;5.00;;;;;;;;;;4998468;28;20027;-87
2021/03/13 00:47:38;;;;;;;7.03;4.63;;;;;;;;;;4998008;28;20030;-87
2021/03/13 00:50:04;;;;;;;5.63;4.53;;;;;;;;;;4999048;28;20113;-86
2021/03/13 00:52:31;;;;;;;6.43;5.10;;;;;;;;;;4996637;28;20038;-87
2021/03/13 00:54:57;;;;;;;7.50;5.43;;;;;;;;;;4997639;28;20468;-87
2021/03/13 00:57:23;;;;;;;7.97;5.43;;;;;;;;;;4997864;28;20022;-85
2021/03/13 00:59:49;;;;;;;6.65;5.70;;;;;;;;;;4998147;28;20073;-88
2021/03/13 01:02:15;;;;;;;8.18;6.18;;;;;;;;;;4997867;28;20026;-86
2021/03/13 01:04:41;;;;;;;7.97;6.15;;;;;;;;;;4997759;28;20030;-86
2021/03/13 01:07:07;;;;;;;6.38;5.32;;;;;;;;;;4997841;28;20026;-86
2021/03/13 01:09:33;;;;;;;7.05;5.47;;;;;;;;;;4997638;28;20030;-86
2021/03/13 01:11:59;;;;;;;6.38;5.45;;;;;;;;;;4997784;28;20027;-86
2021/03/13 01:14:26;;;;;;;8.05;5.30;;;;;;;;;;4997888;28;20066;-86
2021/03/13 01:16:52;;;;;;;7.47;5.90;;;;;;;;;;4997955;28;20021;-86
2021/03/13 01:19:36;;;;;;;7.20;5.18;;;;;;;;;;4997540;28;20069;-87
2021/03/13 01:22:02;;;;;;;6.75;5.20;;;;;;;;;;4996308;28;20081;-85
2021/03/13 01:24:28;;;;;;;7.55;5.20;;;;;;;;;;4997386;28;20356;-84
2021/03/13 01:26:54;;;;;;;6.78;4.82;;;;;;;;;;4997920;28;20046;-87
2021/03/13 01:29:21;;;;;;;9.70;5.68;;;;;;;;;;4997731;28;20073;-85
2021/03/13 01:31:47;;;;;;;11.25;6.45;;;;;;;;;;4997868;28;20069;-86
2021/03/13 01:34:13;;;;;;;8.90;6.25;;;;;;;;;;4997611;28;20025;-87
2021/03/13 01:36:39;;;;;;;8.75;4.95;;;;;;;;;;4997701;28;20034;-85
2021/03/13 01:39:05;;;;;;;6.38;4.63;;;;;;;;;;4996437;28;20027;-86
2021/03/13 01:41:31;;;;;;;6.50;3.88;;;;;;;;;;4997281;28;20054;-86
2021/03/13 01:43:57;;;;;;;7.30;4.28;;;;;;;;;;4997494;28;20030;-84
2021/03/13 01:46:23;;;;;;;6.88;5.20;;;;;;;;;;4997117;28;20058;-83
2021/03/13 01:48:51;;;;;;;6.22;4.22;;;;;;;;;;4996923;28;20027;-84
2021/03/13 01:51:17;;;;;;;7.38;4.85;;;;;;;;;;4958865;28;1109547;-85
2021/03/13 01:53:44;;;;;;;8.23;4.68;;;;;;;;;;4997808;28;20030;-84
2021/03/13 01:56:10;;;;;;;6.35;4.07;;;;;;;;;;4996322;28;20030;-85
2021/03/13 01:58:36;;;;;;;9.02;4.25;;;;;;;;;;5000382;28;20038;-85
2021/03/13 02:01:04;;;;;;;6.70;4.22;;;;;;;;;;5002204;28;20037;-84
2021/03/13 02:03:30;;;;;;;5.68;4.18;;;;;;;;;;5002092;28;20037;-85
2021/03/13 02:05:56;;;;;;;6.85;4.70;;;;;;;;;;5000475;28;20046;-84
2021/03/13 02:08:27;;;;;;;7.60;4.40;;;;;;;;;;5001524;28;20033;-83
2021/03/13 02:11:22;;;;;;;7.47;4.30;;;;;;;;;;5001502;28;20027;-83
2021/03/13 02:14:03;;;;;;;5.82;4.43;;;;;;;;;;4961370;29;20040;-85
2021/03/13 02:16:34;;;;;;;7.70;4.07;;;;;;;;;;4961262;29;20019;-85
2021/03/13 02:19:15;;;;;;;6.35;4.20;;;;;;;;;;4961192;29;20434;-86
2021/03/13 02:21:47;;;;;;;7.80;4.25;;;;;;;;;;4961066;29;20069;-86
2021/03/13 02:24:23;;;;;;;7.05;4.32;;;;;;;;;;4961062;28;20043;-86
2021/03/13 02:27:00;;;;;;;5.88;4.32;;;;;;;;;;4961006;29;20035;-86
2021/03/13 02:29:35;;;;;;;4.82;3.80;;;;;;;;;;4960915;29;20031;-85
2021/03/13 02:32:03;;;;;;;7.22;4.18;;;;;;;;;;4961005;28;20035;-85
2021/03/13 02:35:06;;;;;;;6.00;4.05;;;;;;;;;;4960825;29;20047;-85
2021/03/13 02:37:34;;;;;;;6.75;4.35;;;;;;;;;;4961012;28;20039;-86
2021/03/13 02:40:01;;;;;;;6.55;3.80;;;;;;;;;;4944758;29;20035;-85
2021/03/13 02:42:27;;;;;;;5.05;3.92;;;;;;;;;;4960749;29;20113;-87
2021/03/13 02:44:54;;;;;;;5.43;3.70;;;;;;;;;;4944632;29;20139;-86
2021/03/13 02:47:20;;;;;;;7.75;4.95;;;;;;;;;;4944632;29;20027;-86
2021/03/13 02:49:49;;;;;;;5.80;3.78;;;;;;;;;;4974231;28;20046;-86
2021/03/13 02:52:15;;;;;;;8.65;4.30;;;;;;;;;;5000845;28;20046;-86
2021/03/13 02:54:45;;;;;;;7.00;4.65;;;;;;;;;;5001215;28;20038;-86
2021/03/13 02:57:13;;;;;;;7.60;4.32;;;;;;;;;;5001328;28;20061;-85
2021/03/13 02:59:40;;;;;;;6.93;4.53;;;;;;;;;;5001229;28;20027;-86
2021/03/13 03:02:07;;;;;;;6.40;4.05;;;;;;;;;;5000838;28;20033;-86
2021/03/13 03:04:52;;;;;;;6.05;3.88;;;;;;;;;;5000708;28;20029;-85
2021/03/13 03:07:23;;;;;;;6.38;3.83;;;;;;;;;;5000337;28;20034;-86
2021/03/13 03:09:50;;;;;;;6.63;4.07;;;;;;;;;;4999786;28;20030;-86
2021/03/13 03:12:16;;;;;;;7.03;4.30;;;;;;;;;;4999762;28;20023;-85
2021/03/13 03:14:43;;;;;;;5.32;3.83;;;;;;;;;;4999621;28;20392;-85
2021/03/13 03:17:09;;;;;;;5.47;3.88;;;;;;;;;;5000493;28;20054;-85
2021/03/13 03:19:36;;;;;;;7.25;4.22;;;;;;;;;;5000435;28;20037;-85
2021/03/13 03:22:02;;;;;;;5.95;3.95;;;;;;;;;;5000235;28;20054;-84
2021/03/13 03:24:29;;;;;;;5.68;4.05;;;;;;;;;;5000427;28;20118;-85
2021/03/13 03:26:55;;;;;;;7.43;4.63;;;;;;;;;;5000321;28;20026;-85
2021/03/13 03:29:21;;;;;;;5.95;4.20;;;;;;;;;;5000298;28;20073;-86
2021/03/13 03:31:48;;;;;;;5.78;4.35;;;;;;;;;;5000273;28;20023;-85
2021/03/13 03:34:14;;;;;;;7.25;4.55;;;;;;;;;;5000626;28;20072;-85
2021/03/13 03:36:40;;;;;;;7.97;5.10;;;;;;;;;;5000216;28;20413;-85
2021/03/13 03:39:06;;;;;;;6.97;5.20;;;;;;;;;;5000431;28;20325;-86
2021/03/13 03:41:33;;;;;;;8.27;5.35;;;;;;;;;;5000088;28;20037;-85
2021/03/13 03:44:05;;;;;;;7.43;4.82;;;;;;;;;;5000004;28;20057;-86
2021/03/13 03:46:34;;;;;;;6.32;4.30;;;;;;;;;;5000232;28;20033;-85
2021/03/13 03:49:02;;;;;;;6.53;4.57;;;;;;;;;;4999997;28;20031;-86
2021/03/13 03:51:29;;;;;;;9.18;4.38;;;;;;;;;;4999824;28;20054;-86
2021/03/13 03:53:56;;;;;;;4.68;4.07;;;;;;;;;;4999739;28;20038;-84
2021/03/13 03:56:23;;;;;;;6.32;4.40;;;;;;;;;;4998816;28;20065;-84
2021/03/13 03:58:50;;;;;;;6.57;4.18;;;;;;;;;;4999920;28;20022;-86
2021/03/13 04:01:17;;;;;;;8.85;5.03;;;;;;;;;;4999754;28;20031;-85
2021/03/13 04:03:50;;;;;;;7.45;4.78;;;;;;;;;;4998741;28;20034;-84
2021/03/13 04:09:01;;;;;;;10.50;6.30;;;;;;;;;;4999356;28;19967;-84
2021/03/13 04:11:28;;;;;;;12.27;8.25;;;;;;;;;;4998376;28;20014;-83
2021/03/13 04:13:56;;;;;;;16.50;11.05;;;;;;;;;;4998415;28;20088;-84
2021/03/13 04:16:22;;;;;;;13.38;8.93;;;;;;;;;;4998155;28;20062;-84
2021/03/13 04:18:48;;;;;;;11.95;8.70;;;;;;;;;;4998866;28;20027;-83
2021/03/13 04:21:33;;;;;;;11.63;7.43;;;;;;;;;;4998494;28;20488;-84
2021/03/13 04:23:59;;;;;;;7.70;5.70;;;;;;;;;;4999218;28;20042;-84
2021/03/13 04:26:26;;;;;;;10.68;8.32;;;;;;;;;;4998254;28;20018;-83
2021/03/13 04:28:52;;;;;;;11.07;6.85;;;;;;;;;;4998941;28;20034;-83
2021/03/13 04:31:20;;;;;;;8.02;5.40;;;;;;;;;;4998721;28;20042;-84
2021/03/13 04:33:48;;;;;;;6.00;4.55;;;;;;;;;;4998902;28;20109;-84
2021/03/13 04:36:15;;;;;;;8.27;5.25;;;;;;;;;;4999065;28;20406;-84
2021/03/13 04:38:41;;;;;;;6.88;5.22;;;;;;;;;;4999284;28;20026;-84
2021/03/13 04:41:08;;;;;;;7.80;5.20;;;;;;;;;;4999345;28;20133;-84
2021/03/13 04:43:35;;;;;;;7.50;4.63;;;;;;;;;;4998908;28;20118;-85
2021/03/13 04:46:02;;;;;;;7.00;4.68;;;;;;;;;;4999148;28;20027;-85
2021/03/13 04:48:29;;;;;;;6.47;4.70;;;;;;;;;;4999150;28;20089;-86
2021/03/13 04:51:00;;;;;;;7.50;5.22;;;;;;;;;;4997287;28;20035;-85
2021/03/13 04:53:26;;;;;;;6.78;5.15;;;;;;;;;;4999078;28;20084;-88
2021/03/13 04:55:52;;;;;;;7.95;5.28;;;;;;;;;;4997911;28;20053;-87
2021/03/13 04:58:19;;;;;;;6.93;4.72;;;;;;;;;;4998816;28;20030;-87
2021/03/13 05:00:46;;;;;;;9.02;6.18;;;;;;;;;;4999021;28;20029;-85
2021/03/13 05:03:12;;;;;;;12.75;7.35;;;;;;;;;;4998938;28;20046;-84
2021/03/13 05:05:38;;;;;;;11.60;8.23;;;;;;;;;;4998810;28;20030;-85
2021/03/13 05:08:04;;;;;;;9.45;7.18;;;;;;;;;;4998446;28;20054;-84
2021/03/13 05:10:30;;;;;;;9.63;7.55;;;;;;;;;;4998638;28;20046;-89
2021/03/13 05:12:56;;;;;;;10.65;6.85;;;;;;;;;;4998585;28;20038;-89
2021/03/13 05:15:23;;;;;;;9.20;5.45;;;;;;;;;;4998816;28;20085;-89
2021/03/13 05:17:49;;;;;;;9.02;5.38;;;;;;;;;;4997572;28;20033;-88
2021/03/13 05:20:18;;;;;;;8.75;6.50;;;;;;;;;;4997592;28;20030;-86
2021/03/13 05:22:51;;;;;;;11.57;7.60;;;;;;;;;;4998747;28;20035;-86
2021/03/13 05:25:17;;;;;;;10.23;7.28;;;;;;;;;;4998573;28;20321;-87
2021/03/13 05:27:43;;;;;;;8.45;6.00;;;;;;;;;;4998536;28;20022;-86
2021/03/13 05:30:10;;;;;;;13.07;6.05;;;;;;;;;;4998215;28;20026;-86
2021/03/13 05:32:36;;;;;;;9.50;6.60;;;;;;;;;;4998435;28;20026;-86
2021/03/13 05:35:03;;;;;;;33.65;17.13;;;;;;;;;;4998267;28;20064;-87
2021/03/13 05:37:30;;;;;;;57.33;28.10;;;;;;;;;;4997364;28;20030;-87
2021/03/13 05:39:56;;;;;;;48.50;25.58;;;;;;;;;;4998533;28;20034;-86
2021/03/13 05:42:22;;;;;;;37.70;20.27;;;;;;;;;;4998160;28;20030;-85
2021/03/13 05:44:49;;;;;;;25.15;15.40;;;;;;;;;;4997928;28;20037;-85
2021/03/13 05:47:17;;;;;;;23.58;14.45;;;;;;;;;;4997042;28;20035;-85
2021/03/13 05:49:45;;;;;;;39.28;22.48;;;;;;;;;;4998230;28;20022;-93
2021/03/13 05:52:11;;;;;;;33.35;19.52;;;;;;;;;;4997813;28;20332;-85
2021/03/13 05:54:38;;;;;;;28.15;16.23;;;;;;;;;;4997893;28;20033;-83
2021/03/13 05:57:11;;;;;;;19.88;13.10;;;;;;;;;;4998057;28;20101;-83
2021/03/13 05:59:37;;;;;;;28.02;17.95;;;;;;;;;;4997764;28;20026;-83
2021/03/13 06:02:04;;;;;;;38.38;25.08;;;;;;;;;;4996665;28;20062;-83
2021/03/13 06:04:30;;;;;;;29.25;19.35;;;;;;;;;;4997952;28;20022;-84
2021/03/13 06:06:56;;;;;;;36.55;23.92;;;;;;;;;;4996804;28;20458;-85
2021/03/13 06:09:23;;;;;;;37.17;29.00;;;;;;;;;;4998030;28;20361;-84
2021/03/13 06:11:49;;;;;;;40.42;28.90;;;;;;;;;;4998018;28;20034;-84
2021/03/13 06:14:15;;;;;;;71.90;48.47;;;;;;;;;;4982946;28;20146;-84
2021/03/13 06:16:41;;;;;;;78.45;50.60;;;;;;;;;;4993489;28;20023;-85
2021/03/13 06:19:07;;;;;;;66.55;47.15;;;;;;;;;;4998004;28;20034;-87
2021/03/13 06:21:38;;;;;;;58.63;40.63;;;;;;;;;;4996670;28;20030;-84
2021/03/13 06:24:10;;;;;;;46.28;32.58;;;;;;;;;;4997642;28;20027;-84
2021/03/13 06:26:56;;;;;;;25.98;20.63;;;;;;;;;;4997551;28;20038;-85
2021/03/13 06:29:23;;;;;;;26.60;17.88;;;;;;;;;;4997765;28;20314;-85
2021/03/13 06:32:10;;;;;;;32.42;22.63;;;;;;;;;;4996485;28;20298;-83
2021/03/13 06:34:36;;;;;;;56.65;36.10;;;;;;;;;;4997462;28;20422;-83
2021/03/13 06:37:21;;;;;;;122.97;49.72;;;;;;;;;;4992105;28;20027;-83
2021/03/13 06:39:47;;;;;;;153.48;76.95;;;;;;;;;;4977879;28;20033;-80
2021/03/13 06:42:29;;;;;;;90.10;41.25;;;;;;;;;;4984228;28;20424;-82
2021/03/13 06:44:59;;;;;;;44.22;22.25;;;;;;;;;;4999971;28;20031;-82
2021/03/13 06:47:39;;;;;;;37.42;20.25;;;;;;;;;;4995083;28;20027;-79
2021/03/13 06:50:13;;;;;;;26.50;15.85;;;;;;;;;;4996310;28;20158;-93
2021/03/13 06:52:39;;;;;;;19.27;13.30;;;;;;;;;;4982239;28;20043;-76
2021/03/13 06:55:06;;;;;;;18.77;11.63;;;;;;;;;;5002246;28;20034;-76
2021/03/13 06:57:32;;;;;;;38.92;23.63;;;;;;;;;;5000539;28;20026;-76
2021/03/13 07:00:02;;;;;;;40.20;23.20;;;;;;;;;;5000371;28;20070;-76
2021/03/13 07:02:28;;;;;;;24.00;16.50;;;;;;;;;;5000444;28;20035;-76
2021/03/13 07:05:07;;;;;;;38.50;25.35;;;;;;;;;;5000137;28;20034;-76
2021/03/13 07:07:33;;;;;;;21.58;14.05;;;;;;;;;;5000253;28;20030;-76
2021/03/13 07:10:00;;;;;;;15.55;11.13;;;;;;;;;;5000302;28;20026;-76
2021/03/13 07:12:30;;;;;;;23.80;19.70;;;;;;;;;;5000162;28;20031;-76
2021/03/13 07:14:57;;;;;;;26.02;21.83;;;;;;;;;;5000436;28;20027;-76
2021/03/13 07:17:24;;;;;;;24.08;12.93;;;;;;;;;;4998965;28;20038;-76
2021/03/13 07:19:50;;;;;;;13.40;9.90;;;;;;;;;;4998885;28;20085;-75
2021/03/13 07:22:16;;;;;;;13.02;9.73;;;;;;;;;;4998511;28;20042;-75
2021/03/13 07:24:45;;;;;;;11.50;8.40;;;;;;;;;;4989281;28;20034;-75
2021/03/13 07:27:12;;;;;;;15.13;9.57;;;;;;;;;;4980479;28;20044;-76
2021/03/13 07:29:40;;;;;;;16.90;9.88;;;;;;;;;;4980295;28;20037;-75
2021/03/13 07:32:07;;;;;;;19.48;10.70;;;;;;;;;;4980027;28;20018;-75
2021/03/13 07:34:37;;;;;;;17.40;10.07;;;;;;;;;;4980110;28;20026;-75
2021/03/13 07:37:04;;;;;;;20.48;11.00;;;;;;;;;;4979184;28;20034;-76
2021/03/13 07:39:42;;;;;;;53.00;22.38;;;;;;;;;;4980369;28;20038;-75
2021/03/13 07:42:13;;;;;;;24.30;12.63;;;;;;;;;;4980346;28;20031;-76
2021/03/13 07:44:39;;;;;;;29.23;14.20;;;;;;;;;;4980131;28;20078;-76
2021/03/13 07:47:07;;;;;;;25.70;13.65;;;;;;;;;;4980083;28;20047;-76
2021/03/13 07:49:33;;;;;;;28.27;14.82;;;;;;;;;;4978876;28;20043;-76
2021/03/13 07:52:00;;;;;;;29.88;15.63;;;;;;;;;;4979770;28;20125;-75
2021/03/13 07:54:27;;;;;;;33.08;17.10;;;;;;;;;;4993663;28;20034;-76
2021/03/13 07:56:54;;;;;;;22.88;17.40;;;;;;;;;;4999540;28;20027;-76
2021/03/13 07:59:43;;;;;;;28.92;19.38;;;;;;;;;;4999020;28;20031;-76
2021/03/13 08:02:32;;;;;;;15.90;11.55;;;;;;;;;;4942648;29;20083;-75
2021/03/13 08:04:58;;;;;;;26.25;17.23;;;;;;;;;;4958501;29;20119;-76
2021/03/13 08:07:25;;;;;;;20.77;16.52;;;;;;;;;;4958495;28;20035;-75
2021/03/13 08:09:51;;;;;;;18.48;12.60;;;;;;;;;;4958440;29;20027;-76
2021/03/13 08:12:36;;;;;;;14.98;10.50;;;;;;;;;;4958393;28;20035;-76
2021/03/13 08:15:02;;;;;;;11.90;9.45;;;;;;;;;;4958402;28;20016;-76
2021/03/13 08:17:41;;;;;;;12.98;9.52;;;;;;;;;;4958368;28;20470;-75
2021/03/13 08:20:10;;;;;;;17.00;10.77;;;;;;;;;;4958264;28;20066;-76
2021/03/13 08:22:37;;;;;;;14.57;8.77;;;;;;;;;;4957744;28;20046;-76
2021/03/13 08:25:23;;;;;;;17.25;11.75;;;;;;;;;;4942142;29;20158;-76
2021/03/13 08:27:49;;;;;;;27.95;15.82;;;;;;;;;;4958160;28;20027;-75
2021/03/13 08:30:21;;;;;;;20.77;13.98;;;;;;;;;;4952129;28;20095;-76
2021/03/13 08:32:57;;;;;;;17.88;10.80;;;;;;;;;;4958030;29;20047;-76
2021/03/13 08:35:47;;;;;;;14.50;9.05;;;;;;;;;;4957899;29;20391;-75
2021/03/13 08:38:14;;;;;;;22.52;12.40;;;;;;;;;;4872006;29;20393;-75
2021/03/13 08:40:45;;;;;;;24.00;13.18;;;;;;;;;;4904062;29;20432;-76
2021/03/13 08:43:29;;;;;;;25.67;14.10;;;;;;;;;;4919733;29;20467;-75
2021/03/13 08:45:55;;;;;;;10.48;8.15;;;;;;;;;;4903784;29;20044;-76
2021/03/13 08:48:41;;;;;;;8.82;7.18;;;;;;;;;;4919629;29;20032;-76
2021/03/13 08:51:16;;;;;;;17.85;11.07;;;;;;;;;;4919458;29;20052;-76
2021/03/13 08:53:42;;;;;;;13.32;9.55;;;;;;;;;;4919443;29;20032;-75
2021/03/13 08:56:27;;;;;;;9.23;7.30;;;;;;;;;;4919563;29;20043;-76
2021/03/13 08:58:53;;;;;;;9.52;8.52;;;;;;;;;;4919533;29;20032;-75
2021/03/13 09:01:21;;;;;;;13.02;10.95;;;;;;;;;;4919477;29;20047;-76
2021/03/13 09:03:51;;;;;;;13.02;10.82;;;;;;;;;;4919059;29;20031;-76
2021/03/13 09:06:18;;;;;;;12.27;10.68;;;;;;;;;;4918958;29;20119;-76
2021/03/13 09:08:44;;;;;;;12.95;10.38;;;;;;;;;;4919117;29;20040;-76
2021/03/13 09:11:10;;;;;;;13.38;9.25;;;;;;;;;;4918984;29;20040;-76
2021/03/13 09:13:36;;;;;;;11.88;8.30;;;;;;;;;;4919057;29;20052;-76
2021/03/13 09:16:16;;;;;;;13.57;9.15;;;;;;;;;;4986763;28;20031;-76
2021/03/13 09:18:52;;;;;;;13.93;8.65;;;;;;;;;;4997806;28;20026;-75
2021/03/13 09:21:37;;;;;;;13.07;9.00;;;;;;;;;;4997566;28;20027;-76
2021/03/13 09:24:03;;;;;;;12.85;9.25;;;;;;;;;;4997678;28;20444;-75
2021/03/13 09:26:30;;;;;;;12.23;9.18;;;;;;;;;;4997945;28;20057;-75
2021/03/13 09:28:56;;;;;;;13.02;9.25;;;;;;;;;;4997496;28;20026;-76
2021/03/13 09:31:22;;;;;;;12.57;8.38;;;;;;;;;;4997760;28;20026;-76
2021/03/13 09:33:48;;;;;;;10.82;7.30;;;;;;;;;;4996503;28;20062;-75
2021/03/13 09:36:14;;;;;;;14.90;8.02;;;;;;;;;;4996233;28;20064;-76
2021/03/13 09:38:53;;;;;;;8.48;5.95;;;;;;;;;;4997762;28;20018;-75
2021/03/13 09:41:19;;;;;;;9.77;6.97;;;;;;;;;;4997340;28;20026;-75
2021/03/13 09:43:45;;;;;;;13.90;9.30;;;;;;;;;;5008190;28;20026;-75
2021/03/13 09:46:15;;;;;;;20.10;13.80;;;;;;;;;;5006804;28;20017;-75
2021/03/13 09:48:41;;;;;;;12.32;8.10;;;;;;;;;;4997349;28;20054;-75
2021/03/13 09:51:08;;;;;;;8.75;6.28;;;;;;;;;;4999177;28;20330;-75
2021/03/13 09:53:34;;;;;;;8.82;6.22;;;;;;;;;;5000009;28;20023;-75
2021/03/13 09:56:00;;;;;;;14.00;9.63;;;;;;;;;;4997518;28;20019;-75
2021/03/13 09:58:26;;;;;;;10.00;6.47;;;;;;;;;;4997092;28;20030;-76
2021/03/13 10:00:52;;;;;;;15.98;10.35;;;;;;;;;;4997491;28;20027;-75
2021/03/13 10:03:18;;;;;;;12.57;7.65;;;;;;;;;;5002219;28;20479;-76
2021/03/13 10:05:44;;;;;;;16.23;9.27;;;;;;;;;;4998722;28;20046;-75
2021/03/13 10:08:14;;;;;;;15.40;9.10;;;;;;;;;;4997425;28;20044;-76
2021/03/13 10:10:47;;;;;;;10.90;7.88;;;;;;;;;;4997270;28;20458;-76
2021/03/13 10:13:14;;;;;;;14.18;9.68;;;;;;;;;;4997559;28;20026;-76
2021/03/13 10:15:41;;;;;;;8.95;7.43;;;;;;;;;;4997324;28;20023;-75
2021/03/13 10:18:07;;;;;;;16.80;11.50;;;;;;;;;;4998553;28;20031;-76
2021/03/13 10:20:36;;;;;;;19.95;13.10;;;;;;;;;;5001150;28;20033;-75
2021/03/13 10:23:04;;;;;;;14.95;12.00;;;;;;;;;;5001042;28;20402;-75
2021/03/13 10:25:30;;;;;;;13.57;9.48;;;;;;;;;;5000896;28;20037;-75
2021/03/13 10:28:02;;;;;;;12.93;10.15;;;;;;;;;;4999747;28;20042;-76
2021/03/13 10:30:28;;;;;;;12.65;9.85;;;;;;;;;;5000812;28;20141;-75
2021/03/13 10:32:55;;;;;;;15.98;10.50;;;;;;;;;;4999734;28;20038;-76
2021/03/13 10:35:22;;;;;;;12.07;9.10;;;;;;;;;;5001020;28;20030;-75
2021/03/13 10:37:48;;;;;;;10.18;7.88;;;;;;;;;;5000931;28;20030;-75
2021/03/13 10:40:32;;;;;;;9.52;7.70;;;;;;;;;;5000903;28;20030;-75
2021/03/13 10:43:10;;;;;;;11.02;7.88;;;;;;;;;;5000814;28;20106;-75
2021/03/13 10:45:37;;;;;;;10.60;8.70;;;;;;;;;;5000595;28;20428;-76
2021/03/13 10:48:07;;;;;;;15.38;10.40;;;;;;;;;;5000586;28;20026;-75
2021/03/13 10:50:34;;;;;;;21.33;14.80;;;;;;;;;;5000303;28;20037;-75
2021/03/13 10:53:20;;;;;;;13.27;9.65;;;;;;;;;;5000366;28;20029;-76
2021/03/13 10:55:52;;;;;;;11.82;8.82;;;;;;;;;;4999063;28;20031;-76
2021/03/13 10:58:22;;;;;;;9.20;8.15;;;;;;;;;;5000420;28;20512;-76
2021/03/13 11:00:48;;;;;;;10.90;8.80;;;;;;;;;;5000492;28;20122;-75
2021/03/13 11:03:14;;;;;;;11.48;8.40;;;;;;;;;;5000375;28;20027;-75
2021/03/13 11:05:40;;;;;;;10.70;8.55;;;;;;;;;;4999232;28;20389;-76
2021/03/13 11:08:06;;;;;;;11.60;9.23;;;;;;;;;;5000252;28;20298;-75
2021/03/13 11:10:33;;;;;;;12.25;8.68;;;;;;;;;;4998944;28;20032;-76
2021/03/13 11:12:59;;;;;;;20.67;14.73;;;;;;;;;;5000084;28;20022;-75
2021/03/13 11:15:25;;;;;;;8.98;7.30;;;;;;;;;;4999970;28;20068;-75
2021/03/13 11:17:51;;;;;;;8.32;6.97;;;;;;;;;;4999966;28;20038;-75
2021/03/13 11:20:17;;;;;;;12.10;8.23;;;;;;;;;;4999937;28;20401;-76
2021/03/13 11:22:43;;;;;;;9.35;7.90;;;;;;;;;;4999940;28;20435;-76
2021/03/13 11:25:09;;;;;;;12.73;8.98;;;;;;;;;;4999806;28;20050;-75
2021/03/13 11:27:35;;;;;;;12.05;8.52;;;;;;;;;;4998843;28;20325;-76
2021/03/13 11:30:01;;;;;;;8.07;6.72;;;;;;;;;;4999464;28;20500;-75
2021/03/13 11:32:28;;;;;;;9.75;7.45;;;;;;;;;;4998514;28;20067;-75
2021/03/13 11:34:54;;;;;;;8.90;6.68;;;;;;;;;;4999894;28;20102;-75
2021/03/13 11:37:20;;;;;;;8.85;7.28;;;;;;;;;;4999577;28;20023;-76
2021/03/13 11:39:46;;;;;;;11.05;8.77;;;;;;;;;;4999069;28;20045;-76
2021/03/13 11:42:12;;;;;;;11.68;9.02;;;;;;;;;;4999512;28;20027;-78
2021/03/13 11:44:38;;;;;;;11.93;8.57;;;;;;;;;;4999401;28;20476;-76
2021/03/13 11:47:04;;;;;;;33.85;23.10;;;;;;;;;;4998004;28;20325;-75
2021/03/13 11:49:30;;;;;;;22.02;15.52;;;;;;;;;;5002191;28;20313;-73
2021/03/13 11:51:56;;;;;;;15.45;10.98;;;;;;;;;;4998197;28;20096;-76
2021/03/13 11:54:23;;;;;;;50.03;32.35;;;;;;;;;;4998992;28;20105;-75
2021/03/13 11:56:49;;;;;;;27.08;18.70;;;;;;;;;;4998843;28;20027;-75
2021/03/13 11:59:15;;;;;;;10.02;6.90;;;;;;;;;;5013295;28;20041;-75
2021/03/13 12:01:41;;;;;;;10.77;8.48;;;;;;;;;;5018817;28;20101;-75
2021/03/13 12:04:07;;;;;;;18.23;13.32;;;;;;;;;;5017335;28;20177;-75
2021/03/13 12:06:33;;;;;;;26.40;18.65;;;;;;;;;;5008820;28;20034;-76
2021/03/13 12:09:00;;;;;;;27.17;17.85;;;;;;;;;;5006882;28;20064;-75
2021/03/13 12:11:26;;;;;;;12.15;8.90;;;;;;;;;;5005567;28;20034;-75
2021/03/13 12:13:52;;;;;;;18.55;11.52;;;;;;;;;;5009088;28;20037;-75
2021/03/13 12:16:18;;;;;;;31.20;21.73;;;;;;;;;;5004908;28;20010;-75
2021/03/13 12:18:44;;;;;;;12.13;9.57;;;;;;;;;;5000088;28;20026;-75
2021/03/13 12:21:10;;;;;;;56.50;41.13;;;;;;;;;;4998294;28;20027;-75
2021/03/13 12:23:36;;;;;;;24.85;19.17;;;;;;;;;;4998829;28;20101;-75
2021/03/13 12:26:02;;;;;;;12.00;9.98;;;;;;;;;;4998493;28;20231;-75
2021/03/13 12:28:28;;;;;;;36.85;23.92;;;;;;;;;;4998968;28;20022;-75
2021/03/13 12:30:54;;;;;;;19.88;15.02;;;;;;;;;;5018044;28;20026;-76
2021/03/13 12:33:20;;;;;;;33.92;21.65;;;;;;;;;;5016969;28;20028;-75
2021/03/13 12:35:47;;;;;;;14.10;10.95;;;;;;;;;;5016703;28;20041;-76
2021/03/13 12:38:13;;;;;;;8.00;7.20;;;;;;;;;;5018054;28;20069;-76
2021/03/13 12:40:39;;;;;;;9.73;7.60;;;;;;;;;;5016179;28;20030;-76
2021/03/13 12:43:05;;;;;;;18.20;13.27;;;;;;;;;;5018235;28;20359;-76
2021/03/13 12:45:31;;;;;;;140.98;94.45;;;;;;;;;;5016687;28;20038;-76
2021/03/13 12:47:57;;;;;;;188.32;123.55;;;;;;;;;;5018169;28;20030;-76
2021/03/13 12:50:23;;;;;;;187.93;124.10;;;;;;;;;;5017562;28;20033;-76
2021/03/13 12:52:49;;;;;;;109.22;73.05;;;;;;;;;;5017627;28;20050;-77
2021/03/13 12:55:15;;;;;;;118.20;75.22;;;;;;;;;;5017890;28;20022;-75
2021/03/13 12:57:42;;;;;;;42.10;25.52;;;;;;;;;;5016373;28;20038;-78
2021/03/13 13:00:08;;;;;;;220.32;143.50;;;;;;;;;;5006830;28;20026;-79
2021/03/13 13:02:35;;;;;;;86.85;55.28;;;;;;;;;;4997841;28;20031;-74
2021/03/13 13:05:02;;;;;;;29.50;21.35;;;;;;;;;;4997018;28;20054;-74
2021/03/13 13:07:28;;;;;;;90.43;59.17;;;;;;;;;;4998079;28;20027;-75
2021/03/13 13:09:54;;;;;;;22.95;16.25;;;;;;;;;;4997974;28;20065;-76
2021/03/13 13:12:20;;;;;;;16.75;10.00;;;;;;;;;;4997935;28;20032;-76
2021/03/13 13:14:47;;;;;;;35.28;14.15;;;;;;;;;;4996813;28;20023;-76
2021/03/13 13:17:13;;;;;;;15.57;8.98;;;;;;;;;;4996586;28;20325;-76
2021/03/13 13:19:39;;;;;;;17.80;12.35;;;;;;;;;;4998125;28;20084;-76
2021/03/13 13:22:05;;;;;;;15.45;11.45;;;;;;;;;;4997661;28;20033;-79
2021/03/13 13:24:31;;;;;;;12.57;9.63;;;;;;;;;;4997917;28;20038;-76
2021/03/13 13:26:57;;;;;;;10.25;9.07;;;;;;;;;;4997687;28;20146;-76
2021/03/13 13:29:24;;;;;;;63.35;26.52;;;;;;;;;;4997930;28;20109;-76
2021/03/13 13:31:50;;;;;;;22.63;14.57;;;;;;;;;;4997702;28;20026;-76
2021/03/13 13:34:16;;;;;;;21.17;14.82;;;;;;;;;;4996536;28;20050;-76
2021/03/13 13:36:43;;;;;;;15.40;10.88;;;;;;;;;;4997714;28;20026;-76
2021/03/13 13:39:09;;;;;;;13.68;9.85;;;;;;;;;;4997753;28;20018;-76
2021/03/13 13:41:35;;;;;;;13.77;10.07;;;;;;;;;;4997624;28;20109;-76
2021/03/13 13:44:01;;;;;;;32.70;13.40;;;;;;;;;;4996553;28;20026;-76
2021/03/13 13:46:28;;;;;;;10.95;9.27;;;;;;;;;;4997462;28;20377;-76
2021/03/13 13:48:55;;;;;;;15.25;11.07;;;;;;;;;;4997522;28;20030;-76
2021/03/13 13:51:21;;;;;;;17.25;14.13;;;;;;;;;;4997523;28;20058;-76
2021/03/13 13:53:47;;;;;;;18.20;13.23;;;;;;;;;;5001194;28;20365;-76
2021/03/13 13:56:13;;;;;;;14.55;11.75;;;;;;;;;;5001668;28;20025;-76
2021/03/13 13:58:40;;;;;;;9.98;8.68;;;;;;;;;;5000245;28;20038;-76
2021/03/13 14:01:06;;;;;;;14.32;10.85;;;;;;;;;;5001618;28;20045;-76
2021/03/13 14:03:32;;;;;;;21.42;14.73;;;;;;;;;;5001352;28;20430;-76
2021/03/13 14:05:58;;;;;;;20.73;16.52;;;;;;;;;;5001316;28;20348;-76
2021/03/13 14:08:24;;;;;;;25.90;16.67;;;;;;;;;;5001298;28;20394;-76
2021/03/13 14:10:50;;;;;;;12.65;10.07;;;;;;;;;;5001146;28;20078;-76
2021/03/13 14:13:16;;;;;;;11.73;9.93;;;;;;;;;;5001378;28;20030;-76
2021/03/13 14:15:42;;;;;;;10.68;8.80;;;;;;;;;;5001460;28;20023;-76
2021/03/13 14:18:08;;;;;;;12.32;9.75;;;;;;;;;;5001395;28;20041;-76
2021/03/13 14:20:35;;;;;;;11.73;9.15;;;;;;;;;;5000062;28;20731;-76
2021/03/13 14:23:01;;;;;;;14.55;10.43;;;;;;;;;;5001154;28;20073;-76
2021/03/13 14:25:27;;;;;;;14.65;11.23;;;;;;;;;;5000057;28;20030;-76
2021/03/13 14:27:53;;;;;;;20.23;15.20;;;;;;;;;;5001019;28;20031;-76
2021/03/13 14:30:19;;;;;;;14.85;11.60;;;;;;;;;;5000911;28;20027;-76
2021/03/13 14:32:46;;;;;;;14.10;11.68;;;;;;;;;;5000925;28;20019;-77
2021/03/13 14:35:19;;;;;;;15.98;12.52;;;;;;;;;;5000978;28;20069;-76
2021/03/13 14:37:45;;;;;;;19.27;11.23;;;;;;;;;;4999907;28;20022;-76